Time,TemperatureF,DewpointF,PressureIn,WindDirection,WindDirectionDegrees,WindSpeedMPH,WindSpeedGustMPH,Humidity,HourlyPrecipIn,Conditions,Clouds,dailyrainin,SoftwareType,DateUTC
2013-04-08 00:19:00,53.3,39.9,30.02,South,169,6.0,14.0,60,0.00,,SCT150,0.00,VWS V14.00,2013-04-08 04:19:00,
2013-04-08 00:39:00,53.1,39.2,30.02,South,188,3.4,10.5,59,0.00,,SCT150,0.00,VWS V14.00,2013-04-08 04:39:00,
2013-04-08 00:59:00,53.1,39.4,30.02,SW,218,3.4,9.7,60,0.00,,BKN110,0.00,VWS V14.00,2013-04-08 04:59:00,
2013-04-08 01:19:00,53.1,39.4,30.02,SSW,200,7.1,11.4,60,0.00,,BKN110,0.00,VWS V14.00,2013-04-08 05:19:00,
2013-04-08 01:39:00,52.4,38.9,30.02,West,267,3.4,12.3,60,0.00,,BKN110,0.00,VWS V14.00,2013-04-08 05:39:00,
2013-04-08 01:59:00,52.7,39.3,30.02,SSW,204,0.0,9.8,60,0.00,,SCT120,0.00,VWS V14.00,2013-04-08 05:59:00,
2013-04-08 02:19:00,52.2,39.1,30.02,SW,228,5.3,10.7,61,0.00,,SCT120,0.00,VWS V14.00,2013-04-08 06:19:00,
2013-04-08 02:39:00,52.9,40.2,30.01,SSW,207,3.2,9.4,62,0.00,,SCT120,0.00,VWS V14.00,2013-04-08 06:39:00,
2013-04-08 02:59:00,52.9,40.4,30.01,SSW,204,2.9,10.4,62,0.00,,SCT250,0.00,VWS V14.00,2013-04-08 06:59:00,
2013-04-08 03:19:00,52.7,40.0,30.01,SW,214,9.2,10.3,62,0.00,,SCT250,0.00,VWS V14.00,2013-04-08 07:19:00,
2013-04-08 03:39:00,51.8,39.1,30.01,SW,229,5.3,10.1,62,0.00,,SCT250,0.00,VWS V14.00,2013-04-08 07:39:00,
2013-04-08 03:59:00,53.5,40.5,30.02,SW,225,3.4,10.4,61,0.00,,BKN250,0.00,VWS V14.00,2013-04-08 07:59:00,
2013-04-08 04:19:00,52.7,40.3,30.01,SW,219,0.0,8.6,63,0.00,,BKN250,0.00,VWS V14.00,2013-04-08 08:19:00,
2013-04-08 04:39:00,52.8,41.3,30.01,WSW,253,0.0,6.3,65,0.00,,BKN250,0.00,VWS V14.00,2013-04-08 08:39:00,
2013-04-08 04:59:00,49.8,39.6,30.01,SW,218,0.0,7.5,68,0.00,,BKN250,0.00,VWS V14.00,2013-04-08 08:59:00,
2013-04-08 05:19:00,49.8,40.6,30.02,SSW,197,3.5,6.8,71,0.00,,BKN250,0.00,VWS V14.00,2013-04-08 09:19:00,
2013-04-08 05:39:00,49.9,41.4,30.02,WSW,240,0.0,8.8,72,0.00,,BKN250,0.00,VWS V14.00,2013-04-08 09:39:00,
2013-04-08 05:59:00,48.8,41.5,30.02,SSW,211,0.0,6.7,76,0.00,,SCT250,0.00,VWS V14.00,2013-04-08 09:59:00,
2013-04-08 06:19:00,47.6,40.7,30.02,SSW,207,0.0,7.3,77,0.00,,SCT250,0.00,VWS V14.00,2013-04-08 10:19:00,
2013-04-08 06:39:00,47.1,40.7,30.04,SSW,207,0.0,0.0,78,0.00,,SCT250,0.00,VWS V14.00,2013-04-08 10:39:00,
2013-04-08 06:59:00,45.8,40.3,30.05,SSW,207,0.0,1.8,81,0.00,,SCT250,0.00,VWS V14.00,2013-04-08 10:59:00,
2013-04-08 07:19:00,46.6,41.8,30.06,South,184,0.0,5.8,83,0.00,,SCT250,0.00,VWS V14.00,2013-04-08 11:19:00,
2013-04-08 07:39:00,48.1,43.4,30.06,SW,214,3.4,6.6,84,0.00,,SCT250,0.00,VWS V14.00,2013-04-08 11:39:00,
2013-04-08 07:59:00,50.6,43.4,30.06,SE,142,3.5,6.6,76,0.00,,SCT250,0.00,VWS V14.00,2013-04-08 11:59:00,
2013-04-08 08:39:00,53.6,43.0,30.07,West,266,2.8,8.2,67,0.00,,SCT250,0.00,VWS V14.00,2013-04-08 12:39:00,
2013-04-08 08:59:00,54.8,42.8,30.08,WNW,292,3.5,6.1,64,0.00,,SCT250,0.00,VWS V14.00,2013-04-08 12:59:00,
2013-04-08 09:19:00,55.8,42.9,30.08,SW,214,0.0,6.8,62,0.00,,BKN250,0.00,VWS V14.00,2013-04-08 13:19:00,
2013-04-08 09:39:00,56.2,41.8,30.08,ESE,107,0.0,5.6,58,0.00,,BKN250,0.00,VWS V14.00,2013-04-08 13:39:00,
2013-04-08 09:59:00,57.8,41.8,30.07,ESE,107,0.0,0.0,55,0.00,,SCT250,0.00,VWS V14.00,2013-04-08 13:59:00,
2013-04-08 10:19:00,59.7,42.0,30.08,South,176,5.9,6.6,52,0.00,,SCT250,0.00,VWS V14.00,2013-04-08 14:19:00,
2013-04-08 10:59:00,61.5,40.9,30.07,ENE,77,0.0,6.9,47,0.00,,BKN250,0.00,VWS V14.00,2013-04-08 14:59:00,
2013-04-08 11:19:00,63.5,41.1,30.07,South,174,4.5,7.6,44,0.00,,BKN250,0.00,VWS V14.00,2013-04-08 15:19:00,
2013-04-08 11:39:00,66.6,42.8,30.07,South,180,2.6,8.5,42,0.00,,BKN250,0.00,VWS V14.00,2013-04-08 15:39:00,
2013-04-08 11:59:00,68.4,43.4,30.07,West,264,3.5,7.5,40,0.00,,BKN250,0.00,VWS V14.00,2013-04-08 15:59:00,
2013-04-08 12:19:00,68.5,42.8,30.06,ENE,69,4.5,9.6,39,0.00,,BKN250,0.00,VWS V14.00,2013-04-08 16:19:00,
2013-04-08 12:39:00,68.2,41.2,30.05,SSE,159,3.4,11.4,37,0.00,,BKN250,0.00,VWS V14.00,2013-04-08 16:39:00,
2013-04-08 12:59:00,70.2,42.2,30.04,ESE,104,4.5,12.3,36,0.00,,BKN250,0.00,VWS V14.00,2013-04-08 16:59:00,
2013-04-08 13:19:00,70.1,43.1,30.04,East,91,6.0,13.0,38,0.00,,BKN250,0.00,VWS V14.00,2013-04-08 17:19:00,
2013-04-08 13:39:00,70.7,43.5,30.02,South,176,7.6,12.8,38,0.00,,BKN250,0.00,VWS V14.00,2013-04-08 17:39:00,
2013-04-08 13:59:00,71.3,43.6,30.02,SE,125,9.0,14.2,37,0.00,,BKN250,0.00,VWS V14.00,2013-04-08 17:59:00,
2013-04-08 14:19:00,70.9,43.6,30.01,ESE,110,5.8,13.5,37,0.00,,OVC250,0.00,VWS V14.00,2013-04-08 18:19:00,
2013-04-08 14:39:00,71.5,42.7,30.00,SSE,155,8.3,13.4,35,0.00,,OVC250,0.00,VWS V14.00,2013-04-08 18:39:00,
2013-04-08 15:19:00,72.7,42.7,29.99,ESE,121,8.0,14.1,34,0.00,,BKN250,0.00,VWS V14.00,2013-04-08 19:19:00,
2013-04-08 15:39:00,72.1,41.7,29.99,East,101,9.5,17.0,33,0.00,,BKN250,0.00,VWS V14.00,2013-04-08 19:39:00,
2013-04-08 15:59:00,71.7,41.7,29.98,South,169,10.7,16.5,34,0.00,,BKN250,0.00,VWS V14.00,2013-04-08 19:59:00,
2013-04-08 16:19:00,69.4,40.3,29.97,SE,143,8.9,15.6,35,0.00,,BKN250,0.00,VWS V14.00,2013-04-08 20:19:00,
2013-04-08 16:39:00,70.5,41.0,29.97,ESE,114,12.1,15.3,34,0.00,,BKN250,0.00,VWS V14.00,2013-04-08 20:39:00,
2013-04-08 16:59:00,70.2,41.4,29.96,ESE,121,7.6,17.5,35,0.00,,BKN250,0.00,VWS V14.00,2013-04-08 20:59:00,
2013-04-08 17:19:00,69.1,42.5,29.96,East,97,12.6,17.9,38,0.00,,BKN250,0.00,VWS V14.00,2013-04-08 21:19:00,
2013-04-08 17:39:00,68.0,44.4,29.97,SSE,153,9.3,15.4,42,0.00,,BKN250,0.00,VWS V14.00,2013-04-08 21:39:00,
2013-04-08 17:59:00,66.2,44.4,29.97,South,187,6.4,16.0,45,0.00,,SCT250,0.00,VWS V14.00,2013-04-08 21:59:00,
2013-04-08 18:19:00,65.7,45.3,29.97,SE,142,7.0,13.8,48,0.00,,BKN250,0.00,VWS V14.00,2013-04-08 22:19:00,
2013-04-08 18:39:00,63.4,45.4,29.97,ESE,115,12.3,15.9,52,0.00,,BKN250,0.00,VWS V14.00,2013-04-08 22:39:00,
2013-04-08 18:59:00,62.6,46.6,29.97,ESE,118,3.4,15.5,56,0.00,,BKN250,0.00,VWS V14.00,2013-04-08 22:59:00,
2013-04-08 19:19:00,63.5,49.0,29.97,ESE,104,10.6,17.3,59,0.00,,BKN250,0.00,VWS V14.00,2013-04-08 23:19:00,
2013-04-08 19:39:00,61.5,48.3,29.97,ESE,121,7.4,15.1,62,0.00,,BKN250,0.00,VWS V14.00,2013-04-08 23:39:00,
2013-04-08 19:59:00,62.5,50.3,29.97,ESE,111,8.5,12.0,64,0.00,,BKN250,0.00,VWS V14.00,2013-04-08 23:59:00,
2013-04-08 20:19:00,61.7,50.4,29.97,SE,124,7.2,12.4,66,0.00,,BKN250,0.00,VWS V14.00,2013-04-09 00:19:00,
2013-04-08 20:39:00,60.9,50.5,29.97,SE,139,5.3,10.4,69,0.00,,BKN250,0.00,VWS V14.00,2013-04-09 00:39:00,
2013-04-08 20:59:00,58.7,49.2,29.97,SE,138,5.0,8.1,71,0.00,,BKN250,0.00,VWS V14.00,2013-04-09 00:59:00,
2013-04-08 21:19:00,59.3,50.2,29.98,East,93,3.1,8.3,72,0.00,,BKN250,0.00,VWS V14.00,2013-04-09 01:19:00,
2013-04-08 21:39:00,58.9,50.9,29.98,East,98,0.0,4.7,75,0.00,,BKN250,0.00,VWS V14.00,2013-04-09 01:39:00,
2013-04-08 21:59:00,57.2,49.7,29.98,ESE,110,2.9,6.6,76,0.00,,SCT250,0.00,VWS V14.00,2013-04-09 01:59:00,
2013-04-08 22:19:00,58.2,50.1,29.98,SSE,149,0.0,8.0,74,0.00,,SCT250,0.00,VWS V14.00,2013-04-09 02:19:00,
2013-04-08 22:39:00,57.4,48.6,29.97,SE,136,6.5,10.9,72,0.00,,SCT250,0.00,VWS V14.00,2013-04-09 02:39:00,
2013-04-08 22:59:00,59.4,49.8,29.98,ESE,108,0.0,8.1,70,0.00,,SCT250,0.00,VWS V14.00,2013-04-09 02:59:00,
2013-04-08 23:19:00,58.4,47.8,29.97,SSE,160,1.2,10.7,68,0.00,,SCT250,0.00,VWS V14.00,2013-04-09 03:19:00,
2013-04-08 23:39:00,59.5,48.2,29.97,SE,128,5.0,11.4,66,0.00,,SCT250,0.00,VWS V14.00,2013-04-09 03:39:00,